Time;durP1;ratioP1;P1;durP2;ratioP2;P2;SDS_P1;SDS_P2;PMS_P1;PMS_P2;Temp;Humidity;BMP_temperature;BMP_pressure;BME280_temperature;BME280_humidity;BME280_pressure;Samples;Min_cycle;Max_cycle;Signal;HPM_P1;HPM_P2
2021/08/04 00:01:51;;;;;;;2.30;2.00;;;18.50;99.90;;;;;;5061824;28;20183;-80
2021/08/04 00:04:16;;;;;;;2.50;2.30;;;18.40;99.90;;;;;;5060330;28;20189;-80
2021/08/04 00:06:42;;;;;;;3.10;2.57;;;18.40;99.90;;;;;;5059781;28;20180;-80
2021/08/04 00:09:08;;;;;;;4.70;2.37;;;18.40;99.90;;;;;;5041069;28;20646;-80
2021/08/04 00:11:33;;;;;;;2.70;2.50;;;18.30;99.90;;;;;;5058048;28;20212;-79
2021/08/04 00:14:00;;;;;;;3.37;2.27;;;18.20;99.90;;;;;;5056701;28;20231;-80
2021/08/04 00:16:25;;;;;;;2.40;2.20;;;18.20;99.90;;;;;;5057469;28;20174;-79
2021/08/04 00:18:51;;;;;;;3.60;2.70;;;18.20;99.90;;;;;;5057941;28;20468;-79
2021/08/04 00:21:17;;;;;;;3.97;2.60;;;18.10;99.90;;;;;;5058232;28;20699;-79
2021/08/04 00:23:43;;;;;;;3.60;2.90;;;18.00;99.90;;;;;;5055947;28;20195;-80
2021/08/04 00:26:08;;;;;;;7.03;2.33;;;17.90;99.90;;;;;;5057440;28;20406;-79
2021/08/04 00:28:34;;;;;;;3.20;2.83;;;17.90;99.90;;;;;;5055957;28;20888;-80
2021/08/04 00:30:59;;;;;;;5.10;2.40;;;17.80;99.90;;;;;;5054818;28;20205;-79
2021/08/04 00:33:25;;;;;;;2.67;2.47;;;17.80;99.90;;;;;;5057440;28;20206;-80
2021/08/04 00:35:51;;;;;;;2.80;1.87;;;17.80;99.90;;;;;;5063100;28;20659;-79
2021/08/04 00:38:16;;;;;;;3.90;2.40;;;17.90;99.90;;;;;;5060036;28;20210;-79
2021/08/04 00:40:42;;;;;;;2.40;1.97;;;17.90;99.90;;;;;;5042820;28;20209;-80
2021/08/04 00:43:08;;;;;;;3.07;2.20;;;18.10;99.90;;;;;;5060962;28;20300;-80
2021/08/04 00:45:34;;;;;;;2.90;2.30;;;18.10;99.90;;;;;;5060590;28;20414;-80
2021/08/04 00:48:00;;;;;;;3.50;2.50;;;18.20;99.90;;;;;;5043217;28;20206;-79
2021/08/04 00:50:26;;;;;;;3.70;2.40;;;18.10;99.90;;;;;;5059801;28;20421;-78
2021/08/04 00:52:52;;;;;;;2.23;1.70;;;18.20;99.90;;;;;;5058723;28;20204;-79
2021/08/04 00:55:17;;;;;;;3.00;2.30;;;18.30;99.90;;;;;;5042490;28;20538;-79
2021/08/04 00:57:46;;;;;;;3.43;2.20;;;18.20;99.90;;;;;;5059770;28;20229;-79
2021/08/04 01:00:12;;;;;;;2.00;1.80;;;18.20;99.90;;;;;;5060052;28;20624;-79
2021/08/04 01:02:56;;;;;;;3.87;2.07;;;18.30;99.90;;;;;;5059240;28;20503;-79
2021/08/04 01:05:26;;;;;;;3.33;2.37;;;18.40;99.90;;;;;;5064604;28;20479;-79
2021/08/04 01:08:06;;;;;;;3.40;2.23;;;18.30;99.90;;;;;;5064452;28;20459;-80
2021/08/04 01:10:36;;;;;;;4.90;2.00;;;18.30;99.90;;;;;;5066836;28;20445;-80
2021/08/04 01:13:11;;;;;;;5.50;2.00;;;18.30;99.90;;;;;;5065861;28;20461;-80
2021/08/04 01:15:45;;;;;;;3.07;2.60;;;18.30;99.90;;;;;;5065582;28;20448;-79
2021/08/04 01:18:16;;;;;;;2.10;1.83;;;18.20;99.90;;;;;;5066521;28;20491;-79
2021/08/04 01:20:44;;;;;;;3.20;1.97;;;18.30;99.90;;;;;;5066924;28;20440;-79
2021/08/04 01:23:36;;;;;;;2.37;2.10;;;18.30;99.90;;;;;;5064053;28;20843;-79
2021/08/04 01:26:29;;;;;;;2.37;2.13;;;18.20;99.90;;;;;;5064398;28;20421;-80
2021/08/04 01:28:58;;;;;;;2.40;2.20;;;18.10;99.90;;;;;;5065353;28;20947;-80
2021/08/04 01:31:27;;;;;;;1.73;1.60;;;18.00;99.90;;;;;;5048037;28;20460;-80
2021/08/04 01:33:53;;;;;;;2.33;2.00;;;17.90;99.90;;;;;;5062594;28;20446;-80
2021/08/04 01:36:20;;;;;;;2.67;2.03;;;18.00;99.90;;;;;;5046465;28;20455;-80
2021/08/04 01:38:46;;;;;;;3.03;1.97;;;18.00;99.90;;;;;;5062066;28;20461;-80
2021/08/04 01:41:15;;;;;;;5.43;2.33;;;17.90;99.90;;;;;;5060924;28;20410;-80
2021/08/04 01:43:41;;;;;;;2.47;1.93;;;17.80;99.90;;;;;;5062620;28;20472;-79
2021/08/04 01:46:09;;;;;;;2.40;1.93;;;17.60;99.90;;;;;;5061201;28;20496;-80
2021/08/04 01:48:38;;;;;;;1.80;1.70;;;17.60;99.90;;;;;;5064758;28;20499;-80
2021/08/04 01:51:05;;;;;;;2.60;2.17;;;17.60;99.90;;;;;;5062631;28;20998;-80
2021/08/04 01:53:32;;;;;;;2.23;1.83;;;17.50;99.90;;;;;;5062073;28;20546;-79
2021/08/04 01:55:58;;;;;;;2.30;1.67;;;17.60;99.90;;;;;;5062439;28;20490;-78
2021/08/04 01:58:24;;;;;;;2.10;1.90;;;17.70;99.90;;;;;;5059944;28;20558;-79
2021/08/04 02:00:50;;;;;;;2.63;1.87;;;17.80;99.90;;;;;;5062440;28;20417;-79
2021/08/04 02:03:15;;;;;;;2.40;1.97;;;17.80;99.90;;;;;;5060516;28;20205;-78
2021/08/04 02:05:44;;;;;;;2.63;2.13;;;17.80;99.90;;;;;;5062862;28;20193;-79
2021/08/04 02:08:22;;;;;;;3.53;2.27;;;17.60;99.90;;;;;;5060397;28;20266;-80
2021/08/04 02:10:53;;;;;;;2.03;1.83;;;17.60;99.90;;;;;;5062593;28;20436;-80
2021/08/04 02:13:33;;;;;;;2.57;1.60;;;17.50;99.90;;;;;;5060899;28;20468;-80
2021/08/04 02:16:20;;;;;;;3.93;2.07;;;17.60;99.90;;;;;;5063267;28;20416;-80
2021/08/04 02:19:15;;;;;;;2.40;2.20;;;17.60;99.90;;;;;;5063810;28;20539;-80
2021/08/04 02:21:48;;;;;;;2.17;1.97;;;17.60;99.90;;;;;;5061832;28;20451;-80
2021/08/04 02:24:16;;;;;;;2.53;2.17;;;17.80;99.90;;;;;;5063355;28;20769;-78
2021/08/04 02:26:43;;;;;;;2.63;2.43;;;17.90;99.90;;;;;;5063814;28;20419;-79
2021/08/04 02:29:11;;;;;;;2.50;2.30;;;18.00;99.90;;;;;;5061961;28;20783;-80
2021/08/04 02:31:38;;;;;;;2.30;2.10;;;18.00;99.90;;;;;;5046785;28;20415;-79
2021/08/04 02:34:04;;;;;;;2.60;2.33;;;18.00;99.90;;;;;;5062972;28;20446;-79
2021/08/04 02:36:30;;;;;;;2.53;2.20;;;18.00;99.90;;;;;;5064505;28;20419;-80
2021/08/04 02:39:01;;;;;;;3.77;2.33;;;18.10;99.90;;;;;;5063780;28;20555;-79
2021/08/04 02:41:36;;;;;;;2.77;2.43;;;18.00;99.90;;;;;;5048594;28;21038;-79
2021/08/04 02:44:02;;;;;;;4.47;2.80;;;18.00;99.90;;;;;;5064949;28;20444;-79
2021/08/04 02:46:29;;;;;;;2.73;2.40;;;18.00;99.90;;;;;;5045713;28;20421;-79
2021/08/04 02:48:56;;;;;;;5.27;3.10;;;18.00;99.90;;;;;;5065002;28;20446;-79
2021/08/04 02:51:22;;;;;;;3.27;2.73;;;18.00;99.90;;;;;;5065144;28;20417;-79
2021/08/04 02:53:56;;;;;;;6.87;3.23;;;17.90;99.90;;;;;;5062746;28;20863;-79
2021/08/04 02:56:22;;;;;;;2.20;2.00;;;17.90;99.90;;;;;;5063983;28;20421;-79
2021/08/04 02:58:48;;;;;;;3.90;2.23;;;17.90;99.90;;;;;;5063059;28;20467;-81
2021/08/04 03:01:13;;;;;;;3.20;2.50;;;17.90;99.90;;;;;;5047683;28;20442;-80
2021/08/04 03:03:39;;;;;;;2.90;2.43;;;17.90;99.90;;;;;;5063110;28;20213;-80
2021/08/04 03:06:04;;;;;;;3.23;2.77;;;17.90;99.90;;;;;;5062370;28;20236;-80
2021/08/04 03:08:30;;;;;;;3.03;2.53;;;17.90;99.90;;;;;;5063349;28;20205;-81
2021/08/04 03:10:56;;;;;;;4.30;2.80;;;17.90;99.90;;;;;;5061671;28;20186;-80
2021/08/04 03:13:21;;;;;;;3.50;3.13;;;18.00;99.90;;;;;;5060822;28;20211;-80
2021/08/04 03:15:47;;;;;;;4.77;3.20;;;18.00;99.90;;;;;;5062269;28;20233;-80
2021/08/04 03:18:12;;;;;;;5.53;3.50;;;18.00;99.90;;;;;;5060942;28;20247;-80
2021/08/04 03:20:38;;;;;;;3.53;3.23;;;18.00;99.90;;;;;;5045681;28;20246;-79
2021/08/04 03:23:03;;;;;;;6.40;3.37;;;17.90;99.90;;;;;;5062833;28;20236;-79
2021/08/04 03:25:29;;;;;;;5.23;2.93;;;17.90;99.90;;;;;;5047278;28;20175;-79
2021/08/04 03:27:54;;;;;;;3.30;3.00;;;17.90;99.90;;;;;;5029813;28;20230;-80
2021/08/04 03:30:20;;;;;;;3.50;3.17;;;17.80;99.90;;;;;;5063209;28;20190;-79
2021/08/04 03:32:45;;;;;;;5.67;3.50;;;17.80;99.90;;;;;;5062924;28;20666;-80
2021/08/04 03:35:11;;;;;;;6.10;3.60;;;17.90;99.90;;;;;;5064496;28;20522;-79
2021/08/04 03:37:41;;;;;;;2.50;2.30;;;17.80;99.90;;;;;;5064692;28;20203;-79
2021/08/04 03:40:08;;;;;;;4.27;3.27;;;17.50;99.90;;;;;;5062576;28;20413;-80
2021/08/04 03:42:33;;;;;;;4.20;3.53;;;17.40;99.90;;;;;;5061435;28;20427;-79
2021/08/04 03:44:59;;;;;;;5.03;3.90;;;17.30;99.90;;;;;;5062012;28;20401;-79
2021/08/04 03:47:24;;;;;;;3.10;2.80;;;17.20;99.90;;;;;;5045028;28;20337;-79
2021/08/04 03:49:50;;;;;;;4.10;3.10;;;17.10;99.90;;;;;;5045570;28;20188;-79
2021/08/04 03:52:16;;;;;;;3.73;3.33;;;17.20;99.90;;;;;;5061492;28;20206;-78
2021/08/04 03:54:41;;;;;;;6.50;3.50;;;17.10;99.90;;;;;;5061593;28;20180;-79
2021/08/04 03:57:07;;;;;;;3.90;3.50;;;17.00;99.90;;;;;;5061410;28;20240;-79
2021/08/04 03:59:32;;;;;;;4.63;3.97;;;16.90;99.90;;;;;;5062635;28;20201;-79
2021/08/04 04:01:58;;;;;;;4.47;3.77;;;16.90;99.90;;;;;;5058533;28;20183;-80
2021/08/04 04:04:23;;;;;;;5.63;3.60;;;16.90;99.90;;;;;;5060866;28;20675;-79
2021/08/04 04:06:49;;;;;;;5.30;4.13;;;17.00;99.90;;;;;;5043539;28;20173;-79
2021/08/04 04:09:14;;;;;;;5.27;3.77;;;16.90;99.90;;;;;;5039596;28;20184;-78
2021/08/04 04:11:40;;;;;;;3.00;2.70;;;16.90;99.90;;;;;;5055523;28;20639;-78
2021/08/04 04:14:05;;;;;;;3.80;3.40;;;16.90;99.90;;;;;;5055852;28;20286;-79
2021/08/04 04:16:31;;;;;;;5.63;3.63;;;17.00;99.90;;;;;;5057109;28;20612;-78
2021/08/04 04:18:56;;;;;;;4.43;4.03;;;16.90;99.90;;;;;;5059439;28;20258;-79
2021/08/04 04:21:22;;;;;;;4.47;3.50;;;16.90;99.90;;;;;;5043499;28;20176;-79
2021/08/04 04:23:47;;;;;;;4.83;3.50;;;16.90;99.90;;;;;;5043347;28;20587;-80
2021/08/04 04:26:13;;;;;;;4.97;3.33;;;16.90;99.90;;;;;;5061202;28;20176;-79
2021/08/04 04:28:39;;;;;;;6.80;4.13;;;16.90;99.90;;;;;;5059304;28;20246;-79
2021/08/04 04:31:04;;;;;;;4.43;3.87;;;16.90;99.90;;;;;;5059058;28;20184;-79
2021/08/04 04:33:30;;;;;;;4.90;3.73;;;16.80;99.90;;;;;;5026885;28;20272;-80
2021/08/04 04:35:58;;;;;;;4.87;3.80;;;16.80;99.90;;;;;;5043212;28;20188;-80
2021/08/04 04:38:23;;;;;;;4.60;3.80;;;16.80;99.90;;;;;;5059359;28;20211;-79
2021/08/04 04:40:49;;;;;;;5.27;3.97;;;16.90;99.90;;;;;;5059183;28;20415;-78
2021/08/04 04:43:14;;;;;;;5.10;3.57;;;16.90;99.90;;;;;;5055528;28;20587;-78
2021/08/04 04:45:40;;;;;;;4.03;3.63;;;16.90;99.90;;;;;;5055260;28;20264;-78
2021/08/04 04:48:06;;;;;;;6.30;3.90;;;16.90;99.90;;;;;;5021565;28;20230;-80
2021/08/04 04:50:32;;;;;;;4.60;3.87;;;16.80;99.90;;;;;;5056125;28;20643;-79
2021/08/04 04:52:57;;;;;;;10.40;4.03;;;16.80;99.90;;;;;;5057253;28;21016;-79
2021/08/04 04:55:23;;;;;;;5.00;3.80;;;16.70;99.90;;;;;;5057197;28;20415;-78
2021/08/04 04:57:49;;;;;;;8.83;4.70;;;16.80;99.90;;;;;;5055375;28;20679;-79
2021/08/04 05:00:15;;;;;;;5.30;4.60;;;16.80;99.90;;;;;;5054481;28;20666;-79
2021/08/04 05:02:41;;;;;;;6.97;5.10;;;16.80;99.90;;;;;;5052863;28;20610;-79
2021/08/04 05:05:08;;;;;;;5.50;4.50;;;17.10;99.90;;;;;;5052471;28;20411;-78
2021/08/04 05:07:34;;;;;;;6.83;5.37;;;17.10;99.90;;;;;;5056045;28;20427;-79
2021/08/04 05:09:59;;;;;;;5.80;4.67;;;17.10;99.90;;;;;;5059768;28;20412;-79
2021/08/04 05:12:25;;;;;;;7.50;4.10;;;17.20;99.90;;;;;;5060912;28;20238;-79
2021/08/04 05:14:50;;;;;;;7.00;5.67;;;17.30;99.90;;;;;;5060729;28;20203;-79
2021/08/04 05:17:16;;;;;;;6.40;5.20;;;17.30;99.90;;;;;;5042519;28;20283;-79
2021/08/04 05:19:42;;;;;;;5.80;5.10;;;17.20;99.90;;;;;;5059512;28;20171;-80
2021/08/04 05:22:08;;;;;;;5.13;4.20;;;17.00;99.90;;;;;;5058896;28;20203;-80
2021/08/04 05:24:34;;;;;;;6.47;5.13;;;17.00;99.90;;;;;;5060341;28;20199;-80
2021/08/04 05:26:59;;;;;;;6.23;5.00;;;17.10;99.90;;;;;;5061225;28;20408;-80
2021/08/04 05:29:25;;;;;;;5.37;4.33;;;17.20;99.90;;;;;;5045174;28;20425;-80
2021/08/04 05:31:50;;;;;;;8.20;5.90;;;17.10;99.90;;;;;;5051403;28;20184;-79
2021/08/04 05:34:19;;;;;;;9.27;4.37;;;17.30;99.90;;;;;;5039813;28;20201;-79
2021/08/04 05:36:45;;;;;;;5.90;5.23;;;17.30;99.90;;;;;;5022230;28;20168;-79
2021/08/04 05:39:11;;;;;;;6.30;4.27;;;17.30;99.90;;;;;;5022521;28;20450;-79
2021/08/04 05:41:39;;;;;;;5.67;4.20;;;17.40;99.90;;;;;;5021891;28;20532;-79
2021/08/04 05:44:05;;;;;;;6.80;5.00;;;17.40;99.90;;;;;;5019868;28;20456;-79
2021/08/04 05:46:33;;;;;;;5.00;4.10;;;17.50;99.90;;;;;;5036660;28;20844;-80
2021/08/04 05:48:58;;;;;;;8.33;3.93;;;17.50;99.90;;;;;;5037542;28;20787;-79
2021/08/04 05:51:24;;;;;;;4.53;3.90;;;17.60;99.90;;;;;;5040989;28;20440;-79
2021/08/04 05:53:52;;;;;;;6.20;4.50;;;17.70;99.90;;;;;;5041405;28;20708;-80
2021/08/04 05:56:18;;;;;;;6.33;5.00;;;17.60;99.90;;;;;;5040416;28;20211;-81
2021/08/04 05:58:43;;;;;;;5.23;4.07;;;17.70;99.90;;;;;;5022661;28;20517;-80
2021/08/04 06:01:09;;;;;;;6.10;4.30;;;17.70;99.90;;;;;;5020604;28;20180;-81
2021/08/04 06:03:36;;;;;;;4.90;4.10;;;17.60;99.90;;;;;;5031354;28;20316;-80
2021/08/04 06:06:01;;;;;;;6.20;4.13;;;17.60;99.90;;;;;;5040330;28;20226;-82
2021/08/04 06:08:28;;;;;;;6.43;4.90;;;17.80;99.90;;;;;;5018664;28;20786;-81
2021/08/04 06:10:53;;;;;;;6.87;4.63;;;17.80;99.90;;;;;;5024137;28;20475;-83
2021/08/04 06:13:19;;;;;;;6.20;4.63;;;17.90;99.90;;;;;;5016601;28;20461;-82
2021/08/04 06:15:45;;;;;;;5.47;4.90;;;18.10;99.90;;;;;;4999097;28;20193;-80
2021/08/04 06:18:10;;;;;;;5.73;3.93;;;18.40;99.90;;;;;;5027980;28;20244;-79
2021/08/04 06:20:36;;;;;;;6.47;3.63;;;18.50;99.90;;;;;;5037135;28;20180;-79
2021/08/04 06:23:01;;;;;;;6.60;3.67;;;18.30;99.90;;;;;;5072390;28;20199;-79
2021/08/04 06:25:27;;;;;;;4.83;3.90;;;18.40;99.90;;;;;;5057952;28;20255;-79
2021/08/04 06:27:52;;;;;;;4.63;3.50;;;18.10;99.90;;;;;;5036669;28;20211;-79
2021/08/04 06:30:18;;;;;;;6.30;4.23;;;17.80;99.90;;;;;;5037868;28;20180;-81
2021/08/04 06:32:44;;;;;;;5.07;3.90;;;17.90;99.90;;;;;;5035473;28;20199;-79
2021/08/04 06:35:10;;;;;;;6.93;3.93;;;18.10;99.90;;;;;;5053685;28;20435;-80
2021/08/04 06:37:36;;;;;;;5.87;3.27;;;18.50;99.90;;;;;;5057302;28;20179;-80
2021/08/04 06:40:02;;;;;;;4.30;3.10;;;18.80;99.90;;;;;;5046902;28;20435;-79
2021/08/04 06:42:28;;;;;;;5.83;3.17;;;18.90;99.90;;;;;;5035703;28;20903;-78
2021/08/04 06:44:53;;;;;;;7.60;4.13;;;18.90;99.90;;;;;;5044578;28;20434;-78
2021/08/04 06:47:19;;;;;;;5.23;3.77;;;18.90;99.90;;;;;;5055161;28;20190;-78
2021/08/04 06:49:45;;;;;;;4.30;3.90;;;18.90;99.90;;;;;;5045685;28;20192;-79
2021/08/04 06:52:10;;;;;;;11.70;3.77;;;18.90;99.90;;;;;;5035660;28;20656;-77
2021/08/04 06:54:36;;;;;;;4.87;4.07;;;19.10;99.90;;;;;;5047174;28;20684;-78
2021/08/04 06:57:02;;;;;;;4.40;3.33;;;19.30;99.90;;;;;;5034985;28;20166;-79
2021/08/04 06:59:34;;;;;;;5.33;3.43;;;19.40;99.90;;;;;;5035145;28;20210;-79
2021/08/04 07:02:01;;;;;;;3.43;3.13;;;19.40;99.90;;;;;;5034833;28;20900;-78
2021/08/04 07:04:28;;;;;;;3.50;2.83;;;19.40;99.90;;;;;;5053508;28;20440;-78
2021/08/04 07:06:56;;;;;;;3.23;2.93;;;19.40;99.90;;;;;;5048339;28;20426;-78
2021/08/04 07:09:22;;;;;;;3.90;3.00;;;19.30;99.90;;;;;;5045935;28;20488;-79
2021/08/04 07:11:48;;;;;;;2.77;2.47;;;19.40;99.90;;;;;;5055677;28;20411;-78
2021/08/04 07:14:14;;;;;;;2.57;2.30;;;19.40;99.90;;;;;;5053239;28;20482;-79
2021/08/04 07:16:39;;;;;;;2.80;2.07;;;19.60;99.90;;;;;;5018313;28;20184;-79
2021/08/04 07:19:08;;;;;;;3.37;2.50;;;19.50;99.90;;;;;;5048891;28;20551;-79
2021/08/04 07:21:33;;;;;;;2.87;2.27;;;19.40;99.90;;;;;;5037652;28;20203;-79
2021/08/04 07:23:59;;;;;;;3.50;2.93;;;19.30;99.90;;;;;;5045272;28;20441;-79
2021/08/04 07:26:27;;;;;;;2.80;2.47;;;19.30;99.90;;;;;;5038169;28;20182;-79
2021/08/04 07:28:53;;;;;;;5.23;2.90;;;19.30;99.90;;;;;;5036269;28;20544;-79
2021/08/04 07:31:18;;;;;;;3.20;2.83;;;19.40;99.90;;;;;;5046621;28;20420;-80
2021/08/04 07:33:44;;;;;;;4.47;3.57;;;19.50;99.90;;;;;;5038969;28;20207;-79
2021/08/04 07:36:12;;;;;;;3.00;2.37;;;19.50;99.90;;;;;;5032802;28;20177;-78
2021/08/04 07:38:38;;;;;;;2.70;2.40;;;19.60;99.90;;;;;;5033264;28;20288;-78
2021/08/04 07:41:04;;;;;;;3.90;2.50;;;19.60;99.90;;;;;;5034214;28;20416;-79
2021/08/04 07:43:30;;;;;;;3.10;2.43;;;19.60;99.90;;;;;;5034306;28;20201;-79
2021/08/04 07:45:56;;;;;;;2.53;2.33;;;19.60;99.90;;;;;;5035812;28;20410;-79
2021/08/04 07:48:21;;;;;;;2.57;2.37;;;19.60;99.90;;;;;;5042564;28;20193;-78
2021/08/04 07:50:47;;;;;;;3.23;2.90;;;19.70;99.90;;;;;;5038839;28;20215;-78
2021/08/04 07:53:12;;;;;;;2.90;2.53;;;19.70;99.90;;;;;;5045425;28;20222;-79
2021/08/04 07:55:38;;;;;;;3.83;2.80;;;19.80;99.90;;;;;;5016842;28;20191;-79
2021/08/04 07:58:07;;;;;;;3.40;2.60;;;19.80;99.90;;;;;;5036425;28;20216;-78
2021/08/04 08:00:32;;;;;;;2.30;2.10;;;19.70;99.90;;;;;;5041599;28;20202;-78
2021/08/04 08:02:58;;;;;;;5.33;3.50;;;19.80;99.90;;;;;;5035848;28;20476;-78
2021/08/04 08:05:23;;;;;;;3.93;2.60;;;19.90;99.90;;;;;;5032841;28;20208;-80
2021/08/04 08:07:50;;;;;;;3.20;2.77;;;19.90;99.90;;;;;;5037831;28;20187;-80
2021/08/04 08:10:21;;;;;;;3.70;3.17;;;19.90;99.90;;;;;;5038820;28;20184;-80
2021/08/04 08:12:47;;;;;;;4.03;2.33;;;19.90;99.90;;;;;;5037288;28;20440;-81
2021/08/04 08:15:17;;;;;;;3.40;2.97;;;20.00;99.90;;;;;;5037790;28;20938;-80
2021/08/04 08:17:42;;;;;;;3.10;2.80;;;20.10;99.90;;;;;;5037160;28;20457;-79
2021/08/04 08:20:09;;;;;;;2.77;2.30;;;20.10;99.90;;;;;;5035498;28;20419;-81
2021/08/04 08:22:35;;;;;;;3.70;2.90;;;20.20;99.90;;;;;;5019243;28;20211;-81
2021/08/04 08:25:00;;;;;;;3.23;2.60;;;20.10;99.90;;;;;;5034950;28;20533;-81
2021/08/04 08:27:26;;;;;;;4.77;3.23;;;19.90;99.90;;;;;;5038506;28;20176;-80
2021/08/04 08:29:51;;;;;;;3.60;3.30;;;19.70;99.90;;;;;;5032206;28;20188;-81
2021/08/04 08:32:17;;;;;;;3.67;3.27;;;19.40;99.90;;;;;;5023610;28;20274;-81
2021/08/04 08:34:43;;;;;;;3.77;3.40;;;19.40;99.90;;;;;;5028307;28;20171;-81
2021/08/04 08:37:12;;;;;;;4.17;3.30;;;19.40;99.90;;;;;;5035256;28;20259;-81
2021/08/04 08:39:37;;;;;;;4.10;3.20;;;19.40;99.90;;;;;;5034638;28;20280;-82
2021/08/04 08:42:03;;;;;;;2.97;2.70;;;19.50;99.90;;;;;;5034292;28;20897;-81
2021/08/04 08:44:29;;;;;;;2.93;2.60;;;19.80;99.90;;;;;;5036201;28;20667;-82
2021/08/04 08:46:55;;;;;;;3.23;2.93;;;20.20;99.90;;;;;;5034123;28;20505;-82
2021/08/04 08:49:26;;;;;;;6.03;3.07;;;20.30;99.90;;;;;;5035149;28;20429;-80
2021/08/04 08:51:52;;;;;;;2.20;2.00;;;20.50;99.90;;;;;;5035597;28;20215;-81
2021/08/04 08:54:17;;;;;;;2.47;2.27;;;20.70;99.90;;;;;;5036053;28;20493;-81
2021/08/04 08:56:43;;;;;;;2.20;2.00;;;20.70;99.90;;;;;;5035688;28;20431;-80
2021/08/04 08:59:09;;;;;;;2.47;2.07;;;21.00;99.90;;;;;;5036447;28;20280;-83
2021/08/04 09:01:38;;;;;;;2.47;2.27;;;21.10;99.90;;;;;;5034680;28;20463;-83
2021/08/04 09:04:15;;;;;;;2.80;2.37;;;21.00;99.90;;;;;;5036041;28;20427;-82
2021/08/04 09:07:00;;;;;;;3.20;2.10;;;21.10;99.90;;;;;;5034653;28;20452;-81
2021/08/04 09:09:31;;;;;;;3.23;2.07;;;21.00;99.90;;;;;;5019518;28;20865;-82
2021/08/04 09:12:07;;;;;;;2.60;1.97;;;21.00;99.90;;;;;;5034911;28;20522;-82
2021/08/04 09:14:35;;;;;;;5.83;2.00;;;20.70;99.90;;;;;;5034768;28;20485;-82
2021/08/04 09:17:05;;;;;;;3.47;2.20;;;20.60;99.90;;;;;;5033094;28;20424;-81
2021/08/04 09:19:33;;;;;;;2.77;2.00;;;20.90;99.90;;;;;;5033433;28;20497;-81
2021/08/04 09:22:20;;;;;;;3.80;2.47;;;20.80;99.90;;;;;;5033715;28;20527;-80
2021/08/04 09:24:57;;;;;;;2.53;2.30;;;20.30;99.90;;;;;;5034467;28;20487;-80
2021/08/04 09:27:46;;;;;;;6.53;1.93;;;20.30;99.90;;;;;;5020596;28;20932;-82
2021/08/04 09:30:38;;;;;;;2.67;2.47;;;20.50;99.90;;;;;;5038404;28;20413;-80
2021/08/04 09:33:13;;;;;;;2.77;2.47;;;20.40;99.90;;;;;;5040827;28;20440;-80
2021/08/04 09:35:51;;;;;;;3.77;2.80;;;20.40;99.90;;;;;;5038706;28;20419;-80
2021/08/04 09:38:19;;;;;;;2.90;2.50;;;20.60;99.90;;;;;;5038350;28;20504;-80
2021/08/04 09:40:45;;;;;;;4.40;2.73;;;20.50;99.90;;;;;;5039804;28;20430;-81
2021/08/04 09:43:21;;;;;;;2.63;2.23;;;20.60;99.90;;;;;;5042479;28;20442;-83
2021/08/04 09:45:48;;;;;;;3.10;2.80;;;20.80;99.90;;;;;;5027550;28;20427;-83
2021/08/04 09:48:16;;;;;;;2.67;2.47;;;21.00;99.90;;;;;;5048852;28;20913;-82
2021/08/04 09:50:55;;;;;;;5.13;2.27;;;20.80;99.90;;;;;;5038813;28;20422;-82
2021/08/04 09:53:33;;;;;;;2.80;2.37;;;20.60;99.90;;;;;;5054359;28;20453;-83
2021/08/04 09:56:15;;;;;;;3.67;2.20;;;20.70;99.90;;;;;;5038738;28;20516;-83
2021/08/04 09:58:49;;;;;;;4.40;2.80;;;20.80;99.90;;;;;;5057006;28;20464;-82
2021/08/04 10:01:22;;;;;;;2.80;2.60;;;20.90;99.90;;;;;;5046363;28;20432;-83
2021/08/04 10:03:57;;;;;;;2.80;2.33;;;21.20;99.90;;;;;;5021757;28;20448;-83
2021/08/04 10:06:23;;;;;;;5.17;2.83;;;21.40;99.90;;;;;;5040475;28;20507;-83
2021/08/04 10:08:49;;;;;;;4.03;2.40;;;21.40;99.90;;;;;;5021392;28;20481;-81
2021/08/04 10:11:15;;;;;;;2.60;2.40;;;20.70;99.90;;;;;;5036283;28;20190;-82
2021/08/04 10:13:41;;;;;;;3.00;2.10;;;20.70;99.90;;;;;;5038070;28;20223;-81
2021/08/04 10:16:07;;;;;;;2.37;2.00;;;20.50;99.90;;;;;;5013902;28;20440;-81
2021/08/04 10:18:34;;;;;;;4.47;2.80;;;20.50;99.90;;;;;;5041585;28;20526;-81
2021/08/04 10:21:04;;;;;;;6.40;1.80;;;20.50;99.90;;;;;;5053515;28;20422;-82
2021/08/04 10:23:33;;;;;;;1.80;1.70;;;20.70;99.90;;;;;;5023976;28;20503;-82
2021/08/04 10:26:00;;;;;;;2.50;2.30;;;21.10;99.90;;;;;;5057593;28;20423;-81
2021/08/04 10:28:27;;;;;;;3.80;2.40;;;21.00;99.90;;;;;;5059026;28;20432;-79
2021/08/04 10:30:53;;;;;;;2.70;2.50;;;21.20;99.90;;;;;;5042913;28;20427;-80
2021/08/04 10:33:19;;;;;;;2.40;2.20;;;21.40;99.90;;;;;;5046171;28;20770;-81
2021/08/04 10:35:51;;;;;;;2.67;2.27;;;21.40;99.90;;;;;;5044743;28;20473;-80
2021/08/04 10:38:20;;;;;;;2.43;1.90;;;21.60;99.90;;;;;;5036453;28;20201;-79
2021/08/04 10:41:06;;;;;;;4.13;2.30;;;21.80;99.90;;;;;;5039092;28;20417;-82
2021/08/04 10:43:39;;;;;;;2.93;2.23;;;21.70;99.90;;;;;;5039968;28;20459;-80
2021/08/04 10:46:29;;;;;;;3.60;1.97;;;21.50;99.90;;;;;;5040340;28;20416;-84
2021/08/04 10:49:09;;;;;;;2.80;2.03;;;21.60;99.90;;;;;;5042652;28;20569;-81
2021/08/04 10:51:36;;;;;;;2.30;1.43;;;21.60;99.90;;;;;;5051243;28;20426;-81
2021/08/04 10:54:01;;;;;;;2.20;2.00;;;21.60;99.90;;;;;;5037993;28;20439;-80
2021/08/04 10:56:50;;;;;;;1.70;1.43;;;21.40;99.90;;;;;;5046726;28;20515;-80
2021/08/04 10:59:25;;;;;;;2.90;2.27;;;21.50;99.90;;;;;;5033014;28;20584;-79
2021/08/04 11:01:53;;;;;;;4.10;2.17;;;21.60;99.90;;;;;;5038923;28;20420;-81
2021/08/04 11:04:27;;;;;;;1.90;1.70;;;21.40;99.90;;;;;;5038035;28;20469;-80
2021/08/04 11:07:09;;;;;;;2.00;1.80;;;21.20;99.90;;;;;;5037632;28;20412;-82
2021/08/04 11:09:40;;;;;;;1.60;1.33;;;21.20;99.90;;;;;;5037847;28;20464;-80
2021/08/04 11:12:11;;;;;;;1.67;1.57;;;21.30;99.90;;;;;;5037625;28;20851;-81
2021/08/04 11:14:51;;;;;;;2.03;1.73;;;21.40;99.90;;;;;;5020928;28;20459;-82
2021/08/04 11:17:24;;;;;;;3.00;2.07;;;21.00;99.90;;;;;;5038496;28;20925;-81
2021/08/04 11:20:00;;;;;;;2.57;2.30;;;21.00;99.90;;;;;;5037573;28;20467;-81
2021/08/04 11:22:30;;;;;;;2.97;2.57;;;21.30;99.90;;;;;;5036585;28;21002;-80
2021/08/04 11:24:58;;;;;;;2.37;2.17;;;21.50;99.90;;;;;;5036281;28;20427;-81
2021/08/04 11:27:26;;;;;;;2.13;1.93;;;21.40;99.90;;;;;;5038242;28;20408;-81
2021/08/04 11:29:55;;;;;;;2.40;2.00;;;21.40;99.90;;;;;;5050015;28;20491;-81
2021/08/04 11:32:24;;;;;;;1.83;1.63;;;21.50;99.90;;;;;;5045251;28;20438;-81
2021/08/04 11:34:50;;;;;;;3.33;2.13;;;21.70;99.90;;;;;;5044375;28;20423;-79
2021/08/04 11:37:16;;;;;;;2.50;1.83;;;21.60;99.90;;;;;;5037244;28;20424;-80
2021/08/04 11:39:55;;;;;;;2.10;1.90;;;21.80;99.90;;;;;;5036173;28;20499;-80
2021/08/04 11:42:21;;;;;;;1.60;1.50;;;21.90;99.90;;;;;;5036625;28;20412;-82
2021/08/04 11:44:47;;;;;;;2.60;2.33;;;22.10;99.90;;;;;;5036174;28;20412;-80
2021/08/04 11:47:13;;;;;;;2.00;1.70;;;22.10;99.90;;;;;;5049059;28;20430;-81
2021/08/04 11:49:46;;;;;;;1.80;1.70;;;22.10;99.90;;;;;;5029280;28;20430;-82
2021/08/04 11:52:14;;;;;;;2.27;1.90;;;22.10;99.90;;;;;;5031582;28;20424;-81
2021/08/04 11:54:57;;;;;;;2.50;1.73;;;22.10;99.90;;;;;;5037836;28;20416;-77
2021/08/04 11:57:28;;;;;;;1.97;1.77;;;22.00;99.90;;;;;;5047933;28;20432;-79
2021/08/04 11:59:55;;;;;;;1.77;1.67;;;21.90;99.90;;;;;;5035880;28;20424;-80
2021/08/04 12:02:22;;;;;;;2.37;1.90;;;22.00;99.90;;;;;;5037183;28;20482;-80
2021/08/04 12:04:49;;;;;;;2.43;1.70;;;21.90;99.90;;;;;;5036487;28;20415;-80
2021/08/04 12:07:16;;;;;;;1.83;1.70;;;21.90;99.90;;;;;;5036868;28;20412;-81
2021/08/04 12:09:42;;;;;;;2.10;1.90;;;22.00;99.90;;;;;;5045644;28;20419;-79
2021/08/04 12:12:19;;;;;;;2.17;1.90;;;22.00;99.90;;;;;;5037251;28;20950;-80
2021/08/04 12:14:47;;;;;;;1.90;1.80;;;22.00;99.90;;;;;;5038215;28;20440;-81
2021/08/04 12:17:23;;;;;;;2.00;1.80;;;22.10;99.90;;;;;;5036214;28;20563;-80
2021/08/04 12:19:49;;;;;;;2.60;1.67;;;22.30;99.90;;;;;;5038230;28;20451;-81
2021/08/04 12:22:21;;;;;;;1.90;1.23;;;22.30;99.90;;;;;;5054378;28;20435;-80
2021/08/04 12:24:50;;;;;;;1.97;1.53;;;22.40;99.90;;;;;;5052047;28;20430;-81
2021/08/04 12:27:32;;;;;;;3.13;1.90;;;22.60;99.90;;;;;;5038620;28;20426;-82
2021/08/04 12:30:08;;;;;;;2.30;1.70;;;22.30;99.90;;;;;;5040526;28;20474;-80
2021/08/04 12:33:03;;;;;;;5.70;1.63;;;22.30;99.90;;;;;;5040162;28;20469;-80
2021/08/04 12:36:00;;;;;;;2.13;1.87;;;22.10;99.90;;;;;;5037666;28;20484;-83
2021/08/04 12:38:27;;;;;;;2.27;2.07;;;21.90;99.90;;;;;;5022032;28;20536;-80
2021/08/04 12:40:54;;;;;;;2.70;2.00;;;21.60;99.90;;;;;;5021983;28;20401;-81
2021/08/04 12:43:22;;;;;;;2.97;1.77;;;21.40;99.90;;;;;;5022017;28;20483;-80
2021/08/04 12:45:52;;;;;;;2.30;1.70;;;21.50;99.90;;;;;;5020915;28;20492;-82
2021/08/04 12:48:20;;;;;;;2.50;1.83;;;21.60;99.90;;;;;;5007288;28;20462;-82
2021/08/04 12:50:57;;;;;;;1.90;1.73;;;21.40;99.90;;;;;;5021848;28;20423;-82
2021/08/04 12:53:34;;;;;;;2.57;2.10;;;21.30;99.90;;;;;;5021303;28;20457;-80
2021/08/04 12:56:18;;;;;;;3.80;2.43;;;21.40;99.90;;;;;;5020680;28;20447;-81